Phnom-Penh, Cambodja

4:45 PM ICT op 21 april 2015 (GMT +0700)
Pochentong International | | Change Station
CLOSE
Current Station
Luchthaven
Location: Phnom Penh,
Geometrische hoogte: 33 ft
Nabije weerstations

Hoogte 33 ft 11.55 °N, 104.84 °E | Updated 45 minutes ago

Scattered Clouds
Licht bewolkt
102 °F
Voelt als 108 °F
N
4
Wind Variabel Wind van Variabel

Vandaag
Hoog -- | Laag -- °F
--% Kans op neerslag
Gisteren
Hoog -- | Laag -- °F
Precip. -- inches
5:46 AM 6:12 PM
Wassende halvemaan, 9% visible
Druk 29.62 inches
Zicht 6.2 mijlen
Wolken Licht bewolkt 1700 ft
Warmteindex 108 °F
Dauwpunt 68 °F
Vochtigheid 33%
Neerslag 0.00 inches
Dikte sneeuw Niet beschikbaar.
UV 4 van de 12
Pollen Niet beschikbaar.
Luchtkwaliteit Niet beschikbaar.
Flu Activity Niet beschikbaar.
METAR VDPP 210900Z VRB03KT 9999 SCT017 39/20 Q1003

More Conditions Fewer Conditions

Druk 29.62 inches
Zicht 6.2 mijlen
Wolken Licht bewolkt 1700 ft
Warmteindex 108 °F
Dauwpunt 68 °F
Vochtigheid 33%
Neerslag 0.00 inches
Dikte sneeuw Niet beschikbaar.
UV 4 van de 12
Pollen Niet beschikbaar.
Luchtkwaliteit Niet beschikbaar.
Flu Activity Niet beschikbaar.
METAR VDPP 210900Z VRB03KT 9999 SCT017 39/20 Q1003

More Conditions Fewer Conditions

10-Day Weather Forecast

Almanac

Astronomie

Apr. 21, 2015 Opkomst Ondergang
Werkelijke tijd
Burgerlijke schemering
Nautische schemering
Astronomische schemering
Maan
Golflengte van het zichtbare licht
Daglengte
Tomorrow will be .
, % of the Moon is Illuminated

Extremen vandaag

Country Highs Country Lows

Community

WunderPhotos

Upload Photos

1,815,331 foto’s ge-upload!

WunderBlogs® & News

Nearby

Luchtkwaliteit

  Luchtkwaliteit LK-index Verontreinigende stof
Not available.

Dikte sneeuw

Station Depth Geometrische hoogte

Aardbevingen

Stad Distance Mag. Time & Date
Minimum magnitude displayed is 2.5.

Watertemperatuur langs de kust

Plaats Temperatuur

Stations

Nabije weerstations

Locatie station Temp. Gevoelstemperatuur Dauwpunt Vochtigheid Wind Precip. Hoogte Geactualiseerd Type